createdAt,value
2022-08-07T00:01:12.566Z,96534.44
2022-08-07T00:03:55.132Z,96537.09
2022-08-07T00:06:29.779Z,96536.25
2022-08-07T00:09:16.188Z,96533.56
2022-08-07T00:11:54.180Z,96532.56
2022-08-07T00:14:30.158Z,96532.16
2022-08-07T00:17:00.414Z,96548.78
2022-08-07T00:20:00.481Z,96543.03
2022-08-07T00:22:24.769Z,96544.69
2022-08-07T00:25:05.115Z,96550.09
2022-08-07T00:27:51.897Z,96551.16
2022-08-07T00:30:27.764Z,96558.19
2022-08-07T00:32:57.412Z,96558.63
2022-08-07T00:35:25.577Z,96565.50
2022-08-07T00:37:53.630Z,96557.81
2022-08-07T00:40:40.191Z,96569.06
2022-08-07T00:43:10.764Z,96567.63
2022-08-07T00:45:56.617Z,96567.00
2022-08-07T00:48:25.115Z,96572.38
2022-08-07T00:50:59.833Z,96575.28
2022-08-07T00:53:27.039Z,96579.03
2022-08-07T00:56:13.749Z,96581.75
2022-08-07T00:58:47.124Z,96584.03
2022-08-07T01:01:18.438Z,96588.59
2022-08-07T01:03:55.832Z,96586.31
2022-08-07T01:06:27.745Z,96579.47
2022-08-07T01:08:55.713Z,96590.47
2022-08-07T01:12:11.076Z,96579.91
2022-08-07T01:14:10.213Z,96584.44
2022-08-07T01:16:37.701Z,96584.25
2022-08-07T01:19:18.130Z,96587.34
2022-08-07T01:21:48.488Z,96577.63
2022-08-07T01:24:21.473Z,96577.22
2022-08-07T01:26:52.249Z,96574.53
2022-08-07T01:29:22.062Z,96580.72
2022-08-07T01:31:50.062Z,96584.47
2022-08-07T01:34:18.601Z,96588.81
2022-08-07T01:36:52.611Z,96593.19
2022-08-07T01:39:39.460Z,96594.41
2022-08-07T01:42:38.555Z,96598.16
2022-08-07T01:44:54.169Z,96592.34
2022-08-07T01:48:20.585Z,96591.13
2022-08-07T01:50:09.444Z,96601.66
2022-08-07T01:52:40.775Z,96597.50
2022-08-07T01:55:21.985Z,96598.72
2022-08-07T01:58:06.847Z,96596.25
2022-08-07T02:00:48.944Z,96595.22
2022-08-07T02:03:25.032Z,96593.97
2022-08-07T02:06:02.415Z,96589.81
2022-08-07T02:08:40.539Z,96584.81
2022-08-07T02:11:10.463Z,96592.31
2022-08-07T02:14:02.317Z,96590.03
2022-08-07T02:16:33.374Z,96585.25
2022-08-07T02:19:05.611Z,96585.03
2022-08-07T02:21:56.759Z,96573.63
2022-08-07T02:24:26.271Z,96578.38
2022-08-07T02:27:00.127Z,96572.19
2022-08-07T02:29:29.173Z,96568.03
2022-08-07T02:31:57.962Z,96571.94
2022-08-07T02:34:27.224Z,96566.13
2022-08-07T02:36:54.996Z,96568.44
2022-08-07T02:39:42.921Z,96569.47
2022-08-07T02:42:14.661Z,96579.41
2022-08-07T02:44:47.858Z,96574.84
2022-08-07T02:47:19.568Z,96575.25
2022-08-07T02:50:04.934Z,96574.81
2022-08-07T02:52:37.661Z,96585.38
2022-08-07T02:55:27.300Z,96577.94
2022-08-07T02:57:59.771Z,96570.88
2022-08-07T03:00:28.624Z,96564.88
2022-08-07T03:02:57.901Z,96560.53
2022-08-07T03:05:25.143Z,96559.88
2022-08-07T03:08:08.188Z,96558.22
2022-08-07T03:10:41.124Z,96556.56
2022-08-07T03:13:19.415Z,96558.22
2022-08-07T03:15:56.696Z,96566.47
2022-08-07T03:18:35.097Z,96566.47
2022-08-07T03:21:05.215Z,96569.78
2022-08-07T03:24:19.927Z,96565.88
2022-08-07T03:26:29.998Z,96570.22
2022-08-07T03:28:58.716Z,96570.22
2022-08-07T03:31:42.384Z,96573.53
2022-08-07T03:34:18.848Z,96570.63
2022-08-07T03:36:51.855Z,96568.78
2022-08-07T03:39:59.193Z,96563.19
2022-08-07T03:42:08.517Z,96565.63
2022-08-07T03:44:37.774Z,96563.97
2022-08-07T03:47:13.948Z,96562.34
2022-08-07T03:49:52.014Z,96566.44
2022-08-07T03:52:26.150Z,96560.00
2022-08-07T03:55:06.906Z,96560.00
2022-08-07T03:58:34.821Z,96557.72
2022-08-07T04:00:29.329Z,96561.06
2022-08-07T04:02:59.426Z,96559.78
2022-08-07T04:05:39.640Z,96557.75
2022-08-07T04:08:12.186Z,96563.13
2022-08-07T04:10:42.417Z,96557.09
2022-08-07T04:13:15.143Z,96558.56
2022-08-07T04:15:43.547Z,96562.72
2022-08-07T04:18:56.177Z,96562.09
2022-08-07T04:21:02.972Z,96558.34
2022-08-07T04:23:43.443Z,96558.56
2022-08-07T04:26:21.982Z,96558.16
2022-08-07T04:28:48.935Z,96560.00
2022-08-07T04:31:20.085Z,96558.97
2022-08-07T04:33:55.165Z,96551.72
2022-08-07T04:36:26.088Z,96555.25
2022-08-07T04:38:53.413Z,96551.34
2022-08-07T04:41:20.704Z,96559.63
2022-08-07T04:44:12.542Z,96555.47
2022-08-07T04:47:04.704Z,96562.47
2022-08-07T04:49:57.483Z,96562.25
2022-08-07T04:52:53.796Z,96554.19
2022-08-07T04:58:10.763Z,96557.91
2022-08-07T04:59:17.536Z,96564.75
2022-08-07T05:01:51.391Z,96561.66
2022-08-07T05:04:47.318Z,96561.03
2022-08-07T05:07:36.901Z,96563.91
2022-08-07T05:10:14.189Z,96562.03
2022-08-07T05:12:53.722Z,96564.72
2022-08-07T05:15:26.904Z,96559.13
2022-08-07T05:18:06.153Z,96557.88
2022-08-07T05:20:42.917Z,96561.16
2022-08-07T05:23:36.807Z,96564.84
2022-08-07T05:26:11.774Z,96566.97
2022-08-07T05:28:48.458Z,96568.16
2022-08-07T05:31:20.632Z,96573.81
2022-08-07T05:34:04.641Z,96578.19
2022-08-07T05:36:35.371Z,96573.06
2022-08-07T05:40:13.914Z,96579.50
2022-08-07T05:42:02.375Z,96585.69
2022-08-07T05:44:35.066Z,96584.66
2022-08-07T05:47:18.374Z,96584.25
2022-08-07T05:49:50.714Z,96579.75
2022-08-07T05:52:20.334Z,96579.34
2022-08-07T05:54:56.073Z,96581.41
2022-08-07T05:57:30.012Z,96588.69
2022-08-07T06:00:01.135Z,96590.56
2022-08-07T06:02:31.540Z,96588.03
2022-08-07T06:05:04.782Z,96589.91
2022-08-07T06:08:09.094Z,96593.63
2022-08-07T06:10:21.667Z,96592.59
2022-08-07T06:12:49.585Z,96599.25
2022-08-07T06:15:19.897Z,96590.16
2022-08-07T06:17:53.657Z,96600.09
2022-08-07T06:20:25.648Z,96605.13
2022-08-07T06:23:02.336Z,96600.78
2022-08-07T06:25:54.423Z,96601.00
2022-08-07T06:28:27.739Z,96609.31
2022-08-07T06:30:55.748Z,96609.34
2022-08-07T06:33:22.936Z,96601.06
2022-08-07T06:36:12.137Z,96602.50
2022-08-07T06:38:36.630Z,96608.13
2022-08-07T06:42:00.505Z,96610.81
2022-08-07T06:44:21.823Z,96606.88
2022-08-07T06:46:53.809Z,96617.44
2022-08-07T06:49:51.532Z,96609.47
2022-08-07T06:52:32.062Z,96606.88
2022-08-07T06:55:34.246Z,96606.41
2022-08-07T06:58:10.401Z,96606.38
2022-08-07T07:00:42.279Z,96604.25
2022-08-07T07:03:13.690Z,96599.81
2022-08-07T07:06:04.236Z,96599.53
2022-08-07T07:08:30.897Z,96596.13
2022-08-07T07:11:00.991Z,96590.47
2022-08-07T07:13:40.860Z,96590.06
2022-08-07T07:16:30.202Z,96595.19
2022-08-07T07:19:11.498Z,96593.75
2022-08-07T07:22:12.053Z,96596.47
2022-08-07T07:24:42.980Z,96588.28
2022-08-07T07:27:35.779Z,96592.78
2022-08-07T07:30:32.492Z,96582.56
2022-08-07T07:33:01.846Z,96587.31
2022-08-07T07:35:33.443Z,96586.28
2022-08-07T07:38:04.790Z,96586.03
2022-08-07T07:40:34.234Z,96583.75
2022-08-07T07:43:15.006Z,96585.41
2022-08-07T07:46:37.326Z,96589.44
2022-08-07T07:48:36.531Z,96584.59
2022-08-07T07:51:07.810Z,96581.56
2022-08-07T07:53:51.717Z,96586.66
2022-08-07T07:56:30.115Z,96571.31
2022-08-07T07:58:59.993Z,96585.00
2022-08-07T08:02:03.109Z,96581.69
2022-08-07T08:04:20.328Z,96574.72
2022-08-07T08:06:53.950Z,96579.53
2022-08-07T08:09:29.577Z,96582.75
2022-08-07T08:12:02.931Z,96569.53
2022-08-07T08:14:34.521Z,96579.53
2022-08-07T08:17:56.389Z,96575.00
2022-08-07T08:20:19.579Z,96578.25
2022-08-07T08:23:02.161Z,96569.03
2022-08-07T08:25:52.284Z,96571.94
2022-08-07T08:28:37.922Z,96574.78
2022-08-07T08:31:08.641Z,96566.56
2022-08-07T08:33:49.564Z,96576.22
2022-08-07T08:36:29.660Z,96562.19
2022-08-07T08:39:01.957Z,96572.72
2022-08-07T08:42:03.450Z,96570.47
2022-08-07T08:44:44.721Z,96575.06
2022-08-07T08:47:52.890Z,96565.28
2022-08-07T08:50:34.823Z,96563.78
2022-08-07T08:53:12.218Z,96562.75
2022-08-07T08:55:55.362Z,96564.56
2022-08-07T08:58:28.857Z,96555.06
2022-08-07T09:01:14.800Z,96556.91
2022-08-07T09:04:14.733Z,96559.19
2022-08-07T09:07:06.197Z,96558.84
2022-08-07T09:10:19.307Z,96561.81
2022-08-07T09:12:58.764Z,96562.75
2022-08-07T09:16:25.228Z,96555.66
2022-08-07T09:18:33.136Z,96544.75
2022-08-07T09:21:34.249Z,96551.16
2022-08-07T09:24:58.632Z,96551.16
2022-08-07T09:28:00.413Z,96551.50
2022-08-07T09:30:54.906Z,96553.69
2022-08-07T09:33:56.582Z,96535.44
2022-08-07T09:36:37.452Z,96542.84
2022-08-07T09:39:53.834Z,96539.88
2022-08-07T09:42:34.915Z,96536.50
2022-08-07T09:47:37.351Z,96537.03
2022-08-07T09:49:02.234Z,96537.66
2022-08-07T09:52:09.701Z,96537.44
2022-08-07T09:55:28.909Z,96535.59
2022-08-07T09:58:32.046Z,96524.66
2022-08-07T10:01:51.500Z,96519.38
2022-08-07T10:04:38.250Z,96518.72
2022-08-07T10:07:52.355Z,96513.69
2022-08-07T10:11:59.418Z,96502.09
2022-08-07T10:14:30.507Z,96501.56
2022-08-07T10:17:18.604Z,96497.44
2022-08-07T10:20:06.738Z,96490.16
2022-08-07T10:22:57.833Z,96489.38
2022-08-07T10:25:42.326Z,96491.69
2022-08-07T10:28:16.205Z,96484.81
2022-08-07T10:30:53.559Z,96487.63
2022-08-07T10:33:23.600Z,96482.22
2022-08-07T10:36:53.477Z,96467.75
2022-08-07T10:40:03.022Z,96472.50
2022-08-07T10:42:37.604Z,96475.41
2022-08-07T10:45:19.634Z,96467.44
2022-08-07T10:48:34.644Z,96474.63
2022-08-07T10:51:16.682Z,96471.53
2022-08-07T10:54:17.407Z,96467.03
2022-08-07T10:57:09.444Z,96464.63
2022-08-07T10:59:58.098Z,96468.19
2022-08-07T11:02:33.498Z,96465.16
2022-08-07T11:05:35.631Z,96462.13
2022-08-07T11:08:39.013Z,96467.09
2022-08-07T11:11:10.502Z,96463.09
2022-08-07T11:14:46.406Z,96460.41
2022-08-07T11:17:02.215Z,96460.75
2022-08-07T11:19:50.141Z,96461.28
2022-08-07T11:22:45.921Z,96457.56
2022-08-07T11:25:36.200Z,96460.28
2022-08-07T11:28:35.239Z,96460.50
2022-08-07T11:31:02.445Z,96454.97
2022-08-07T11:34:03.032Z,96452.22
2022-08-07T11:36:47.623Z,96447.16
2022-08-07T11:39:59.260Z,96446.81
2022-08-07T11:42:33.996Z,96446.69
2022-08-07T11:45:49.785Z,96447.56
2022-08-07T11:48:35.378Z,96443.94
2022-08-07T11:51:44.646Z,96441.00
2022-08-07T11:54:25.588Z,96446.03
2022-08-07T11:57:12.779Z,96433.50
2022-08-07T12:00:19.602Z,96440.38
2022-08-07T12:03:44.385Z,96438.94
2022-08-07T12:06:57.297Z,96434.34
2022-08-07T12:09:36.190Z,96424.75
2022-08-07T12:12:10.839Z,96426.63
2022-08-07T12:14:56.051Z,96429.28
2022-08-07T12:17:34.305Z,96432.16
2022-08-07T12:20:30.307Z,96426.09
2022-08-07T12:23:14.550Z,96431.75
2022-08-07T12:26:22.337Z,96422.81
2022-08-07T12:29:16.051Z,96434.75
2022-08-07T12:32:04.035Z,96433.34
2022-08-07T12:34:38.896Z,96418.34
2022-08-07T12:37:16.797Z,96421.06
2022-08-07T12:39:52.575Z,96420.53
2022-08-07T12:42:27.943Z,96417.94
2022-08-07T12:44:58.352Z,96417.16
2022-08-07T12:47:40.538Z,96419.31
2022-08-07T12:50:39.286Z,96420.44
2022-08-07T12:54:02.951Z,96418.53
2022-08-07T12:56:51.227Z,96408.72
2022-08-07T12:59:53.985Z,96409.22
2022-08-07T13:02:25.108Z,96412.28
2022-08-07T13:06:03.857Z,96409.53
2022-08-07T13:08:40.269Z,96410.97
2022-08-07T13:11:09.912Z,96414.31
2022-08-07T13:13:57.651Z,96412.72
2022-08-07T13:16:36.792Z,96401.03
2022-08-07T13:19:46.130Z,96405.34
2022-08-07T13:22:31.381Z,96406.91
2022-08-07T13:25:15.220Z,96403.47
2022-08-07T13:28:10.806Z,96406.09
2022-08-07T13:31:01.738Z,96408.81
2022-08-07T13:34:33.089Z,96408.81
2022-08-07T13:36:49.154Z,96400.91
2022-08-07T13:40:32.871Z,96405.00
2022-08-07T13:42:25.028Z,96396.06
2022-08-07T13:45:11.541Z,96402.97
2022-08-07T13:48:05.552Z,96392.88
2022-08-07T13:50:32.542Z,96398.72
2022-08-07T13:53:04.139Z,96394.78
2022-08-07T13:55:34.067Z,96404.25
2022-08-07T13:58:56.319Z,96392.00
2022-08-07T14:01:26.434Z,96394.03
2022-08-07T14:04:06.668Z,96395.56
2022-08-07T14:06:39.244Z,96387.72
2022-08-07T14:10:02.375Z,96390.72
2022-08-07T14:12:07.229Z,96382.78
2022-08-07T14:14:54.658Z,96387.03
2022-08-07T14:18:12.181Z,96375.06
2022-08-07T14:20:40.816Z,96387.03
2022-08-07T14:23:58.589Z,96384.31
2022-08-07T14:26:28.461Z,96387.84
2022-08-07T14:29:08.486Z,96388.19
2022-08-07T14:31:42.725Z,96379.75
2022-08-07T14:34:22.742Z,96393.22
2022-08-07T14:36:55.923Z,96383.16
2022-08-07T14:40:16.615Z,96387.47
2022-08-07T14:42:22.563Z,96375.19
2022-08-07T14:45:22.196Z,96369.47
2022-08-07T14:50:43.003Z,96375.63
2022-08-07T14:53:10.772Z,96380.00
2022-08-07T14:55:55.803Z,96371.31
2022-08-07T14:58:28.170Z,96367.53
2022-08-07T15:00:59.290Z,96370.63
2022-08-07T15:06:15.991Z,96368.84
2022-08-07T15:08:50.068Z,96370.25
2022-08-07T15:11:53.653Z,96371.66
2022-08-07T15:14:25.476Z,96368.38
2022-08-07T15:17:01.148Z,96364.56
2022-08-07T15:20:31.117Z,96366.72
2022-08-07T15:22:32.897Z,96364.47
2022-08-07T15:28:32.168Z,96361.69
2022-08-07T15:30:59.545Z,96367.00
2022-08-07T15:33:35.932Z,96362.78
2022-08-07T15:36:06.732Z,96373.03
2022-08-07T15:42:46.201Z,96375.66
2022-08-07T15:44:17.354Z,96371.09
2022-08-07T15:46:47.426Z,96377.84
2022-08-07T15:50:05.831Z,96376.56
2022-08-07T15:52:30.265Z,96367.50
2022-08-07T15:55:02.353Z,96373.28
2022-08-07T15:57:39.833Z,96376.75
2022-08-07T16:00:31.804Z,96380.13
2022-08-07T16:03:22.072Z,96376.28
2022-08-07T16:06:02.489Z,96373.97
2022-08-07T16:08:38.754Z,96370.56
2022-08-07T16:11:26.844Z,96373.19
2022-08-07T16:14:20.477Z,96375.00
2022-08-07T16:16:49.697Z,96374.94
2022-08-07T16:19:19.327Z,96372.22
2022-08-07T16:22:36.276Z,96378.31
2022-08-07T16:25:52.347Z,96368.38
2022-08-07T16:30:05.841Z,96382.56
2022-08-07T16:31:57.650Z,96377.44
2022-08-07T16:34:40.293Z,96378.69
2022-08-07T16:38:04.682Z,96379.41
2022-08-07T16:40:28.443Z,96387.47
2022-08-07T16:44:03.953Z,96383.38
2022-08-07T16:47:15.815Z,96390.19
2022-08-07T16:50:28.931Z,96393.78
2022-08-07T16:54:01.270Z,96389.28
2022-08-07T16:56:39.638Z,96389.41
2022-08-07T16:59:46.829Z,96394.84
2022-08-07T17:02:51.529Z,96391.53
2022-08-07T17:06:19.758Z,96381.53
2022-08-07T17:09:08.671Z,96391.22
2022-08-07T17:12:01.291Z,96387.09
2022-08-07T17:14:44.177Z,96396.78
2022-08-07T17:17:49.169Z,96392.91
2022-08-07T17:20:35.558Z,96392.44
2022-08-07T17:23:22.447Z,96390.44
2022-08-07T17:26:24.304Z,96393.41
2022-08-07T17:30:12.898Z,96395.53
2022-08-07T17:32:30.627Z,96398.72
2022-08-07T17:35:49.547Z,96391.53
2022-08-07T17:38:50.327Z,96397.91
2022-08-07T17:42:04.681Z,96393.78
2022-08-07T17:44:45.433Z,96395.06
2022-08-07T17:47:38.165Z,96401.69
2022-08-07T17:50:19.432Z,96396.97
2022-08-07T17:52:52.354Z,96405.59
2022-08-07T17:56:01.335Z,96398.75
2022-08-07T17:58:46.308Z,96409.91
2022-08-07T18:01:27.698Z,96412.13
2022-08-07T18:04:16.786Z,96413.91
2022-08-07T18:07:19.125Z,96420.03
2022-08-07T18:10:04.684Z,96420.94
2022-08-07T18:12:41.808Z,96419.19
2022-08-07T18:15:38.177Z,96410.09
2022-08-07T18:18:46.719Z,96420.19
2022-08-07T18:21:30.072Z,96417.59
2022-08-07T18:24:33.255Z,96422.06
2022-08-07T18:27:38.985Z,96422.16
2022-08-07T18:30:32.935Z,96428.00
2022-08-07T18:33:23.592Z,96427.31
2022-08-07T18:36:08.735Z,96428.91
2022-08-07T18:39:01.213Z,96432.91
2022-08-07T18:42:08.302Z,96425.44
2022-08-07T18:47:44.787Z,96440.53
2022-08-07T18:50:39.611Z,96439.97
2022-08-07T18:53:39.348Z,96441.41
2022-08-07T18:56:40.754Z,96444.94
2022-08-07T18:59:58.614Z,96439.06
2022-08-07T19:02:52.550Z,96446.13
2022-08-07T19:06:01.852Z,96458.44
2022-08-07T19:08:29.010Z,96456.16
2022-08-07T19:11:34.881Z,96460.00
2022-08-07T19:14:17.966Z,96462.59
2022-08-07T19:17:06.723Z,96463.88
2022-08-07T19:19:55.905Z,96462.50
2022-08-07T19:22:37.022Z,96468.16
2022-08-07T19:25:12.415Z,96466.34
2022-08-07T19:30:55.402Z,96470.22
2022-08-07T19:31:29.917Z,96480.41
2022-08-07T19:33:44.498Z,96487.66
2022-08-07T19:36:27.890Z,96490.00
2022-08-07T19:38:58.655Z,96496.84
2022-08-07T19:41:39.386Z,96495.38
2022-08-07T19:44:22.046Z,96493.03
2022-08-07T19:46:55.601Z,96493.03
2022-08-07T19:49:58.324Z,96490.97
2022-08-07T19:52:18.556Z,96499.06
2022-08-07T19:54:55.741Z,96493.66
2022-08-07T19:58:01.510Z,96496.59
2022-08-07T20:00:28.594Z,96497.66
2022-08-07T20:03:03.317Z,96506.16
2022-08-07T20:05:59.859Z,96504.06
2022-08-07T20:08:30.138Z,96503.03
2022-08-07T20:11:01.734Z,96507.59
2022-08-07T20:13:49.781Z,96509.88
2022-08-07T20:16:35.568Z,96504.47
2022-08-07T20:19:06.171Z,96515.25
2022-08-07T20:21:41.829Z,96513.19
2022-08-07T20:24:18.140Z,96505.53
2022-08-07T20:26:52.166Z,96515.34
2022-08-07T20:29:58.294Z,96520.28
2022-08-07T20:32:40.596Z,96518.81
2022-08-07T20:35:26.635Z,96513.81
2022-08-07T20:37:59.849Z,96511.94
2022-08-07T20:40:32.249Z,96518.78
2022-08-07T20:43:02.956Z,96518.56
2022-08-07T20:46:27.695Z,96524.38
2022-08-07T20:48:30.294Z,96523.94
2022-08-07T20:51:03.241Z,96532.44
2022-08-07T20:54:03.851Z,96539.50
2022-08-07T20:56:29.119Z,96532.44
2022-08-07T20:59:01.800Z,96532.44
2022-08-07T21:01:45.402Z,96539.72
2022-08-07T21:04:22.741Z,96532.44
2022-08-07T21:06:56.628Z,96543.47
2022-08-07T21:09:52.164Z,96540.13
2022-08-07T21:12:28.614Z,96537.44
2022-08-07T21:14:58.839Z,96536.00
2022-08-07T21:18:03.121Z,96536.84
2022-08-07T21:20:26.667Z,96536.00
2022-08-07T21:23:08.213Z,96531.44
2022-08-07T21:25:56.329Z,96534.94
2022-08-07T21:28:48.824Z,96536.63
2022-08-07T21:32:46.840Z,96529.09
2022-08-07T21:34:48.706Z,96526.63
2022-08-07T21:37:58.123Z,96523.34
2022-08-07T21:40:41.516Z,96522.94
2022-08-07T21:43:17.308Z,96524.81
2022-08-07T21:46:10.418Z,96519.00
2022-08-07T21:49:02.526Z,96519.22
2022-08-07T21:51:51.867Z,96519.66
2022-08-07T21:54:36.104Z,96518.22
2022-08-07T21:57:44.536Z,96518.44
2022-08-07T22:00:22.895Z,96517.81
2022-08-07T22:03:17.226Z,96526.53
2022-08-07T22:05:51.467Z,96528.19
2022-08-07T22:08:26.298Z,96528.66
2022-08-07T22:10:59.864Z,96524.06
2022-08-07T22:13:50.524Z,96519.72
2022-08-07T22:16:44.259Z,96518.47
2022-08-07T22:19:42.067Z,96515.38
2022-08-07T22:22:20.796Z,96518.28
2022-08-07T22:25:08.219Z,96519.53
2022-08-07T22:28:07.909Z,96513.09
2022-08-07T22:30:31.858Z,96514.97
2022-08-07T22:33:12.835Z,96517.88
2022-08-07T22:36:11.987Z,96511.66
2022-08-07T22:38:54.178Z,96517.25
2022-08-07T22:42:04.141Z,96522.66
2022-08-07T22:44:21.852Z,96502.09
2022-08-07T22:47:23.182Z,96516.84
2022-08-07T22:50:20.491Z,96506.63
2022-08-07T22:53:15.129Z,96506.84
2022-08-07T22:56:00.270Z,96504.38
2022-08-07T22:58:33.094Z,96497.28
2022-08-07T23:01:18.180Z,96499.16
2022-08-07T23:03:58.802Z,96495.84
2022-08-07T23:07:04.408Z,96498.75
2022-08-07T23:10:35.035Z,96492.97
2022-08-07T23:13:09.240Z,96493.13
2022-08-07T23:16:06.913Z,96488.81
2022-08-07T23:19:13.706Z,96484.84
2022-08-07T23:21:52.844Z,96484.66
2022-08-07T23:25:09.024Z,96482.97
2022-08-07T23:28:22.341Z,96479.28
2022-08-07T23:31:06.391Z,96483.63
2022-08-07T23:34:36.090Z,96480.72
2022-08-07T23:37:32.196Z,96471.75
2022-08-07T23:40:21.014Z,96473.22
2022-08-07T23:43:16.452Z,96468.66
2022-08-07T23:46:02.676Z,96466.78
2022-08-07T23:49:15.224Z,96465.72
2022-08-07T23:53:00.427Z,96459.13
2022-08-07T23:55:12.923Z,96462.84
2022-08-07T23:58:24.163Z,96459.94
